Terminal Aerodrome Forecast
Issued by NWS

Home | Current Version | Previous Version | Text Only | Print | Product List | Glossary On
Versions: 1 2 3 4 5 6 7 8 9 10 11 12 13 14
000
FTUS43 KPAH 031120
TAFMVN
TAF
KMVN 031120Z 0312/0412 24005KT P6SM FEW090 FEW250
     FM031500 24008KT P6SM FEW045 FEW180
     FM032000 23010KT P6SM FEW060 FEW250
     FM040000 23007KT P6SM VCTS FEW040CB SCT250
     FM040300 00000KT P6SM VCSH SCT024 BKN200
     FM040600 19005KT P6SM SCT016 OVC200=

USA.gov is the U.S. government's official web portal to all federal, state and local government web resources and services.